Terminal Aerodrome Forecast
Issued by NWS

Current Version | Previous Version | Text Only | Print | Product List | Glossary On
Versions: 1 2 3 4 5 6 7 8 9 10 11 12 13 14 15 16 17
000
FTUS45 KCYS 301120
TAFAIA
TAF
KAIA 301120Z 3012/3112 22006KT P6SM SCT250
     FM302000 26012G25KT P6SM VCTS BKN250CB
     FM310200 33008KT P6SM BKN250
     FM310700 36012KT P6SM BKN080=

USA.gov is the U.S. government's official web portal to all federal, state and local government web resources and services.